sensor_id;sensor_type;location;lat;lon;timestamp;pressure;altitude;pressure_sealevel;temperature;humidity
19150;BME280;9707;49.158;8.632;2024-01-30T00:01:50;101806.94;;;17.94;35.75
19150;BME280;9707;49.158;8.632;2024-01-30T00:04:15;101801.66;;;17.93;36.39
19150;BME280;9707;49.158;8.632;2024-01-30T00:06:42;101799.97;;;17.90;35.93
19150;BME280;9707;49.158;8.632;2024-01-30T00:09:07;101800.81;;;17.91;36.27
19150;BME280;9707;49.158;8.632;2024-01-30T00:11:34;101801.78;;;17.90;35.79
19150;BME280;9707;49.158;8.632;2024-01-30T00:13:59;101808.13;;;17.89;35.06
19150;BME280;9707;49.158;8.632;2024-01-30T00:16:25;101802.84;;;17.86;35.04
19150;BME280;9707;49.158;8.632;2024-01-30T00:18:51;101804.69;;;17.85;34.78
19150;BME280;9707;49.158;8.632;2024-01-30T00:21:17;101817.34;;;17.83;34.66
19150;BME280;9707;49.158;8.632;2024-01-30T00:23:42;101811.97;;;17.83;34.93
19150;BME280;9707;49.158;8.632;2024-01-30T00:26:07;101803.94;;;17.82;34.96
19150;BME280;9707;49.158;8.632;2024-01-30T00:28:32;101809.31;;;17.82;34.67
19150;BME280;9707;49.158;8.632;2024-01-30T00:30:58;101802.19;;;17.81;34.54
19150;BME280;9707;49.158;8.632;2024-01-30T00:33:23;101802.25;;;17.79;34.83
19150;BME280;9707;49.158;8.632;2024-01-30T00:35:48;101802.34;;;17.78;34.64
19150;BME280;9707;49.158;8.632;2024-01-30T00:38:13;101808.59;;;17.78;35.42
19150;BME280;9707;49.158;8.632;2024-01-30T00:40:39;101805.06;;;17.78;35.11
19150;BME280;9707;49.158;8.632;2024-01-30T00:43:04;101805.97;;;17.77;34.88
19150;BME280;9707;49.158;8.632;2024-01-30T00:45:29;101814.94;;;17.77;34.96
19150;BME280;9707;49.158;8.632;2024-01-30T00:47:54;101816.75;;;17.77;35.52
19150;BME280;9707;49.158;8.632;2024-01-30T00:50:20;101816.75;;;17.77;35.24
19150;BME280;9707;49.158;8.632;2024-01-30T00:52:45;101819.53;;;17.75;35.00
19150;BME280;9707;49.158;8.632;2024-01-30T00:55:11;101820.41;;;17.76;35.47
19150;BME280;9707;49.158;8.632;2024-01-30T00:57:36;101820.41;;;17.76;36.44
19150;BME280;9707;49.158;8.632;2024-01-30T01:00:02;101819.53;;;17.75;36.85
19150;BME280;9707;49.158;8.632;2024-01-30T01:02:28;101816.75;;;17.77;37.19
19150;BME280;9707;49.158;8.632;2024-01-30T01:04:53;101812.19;;;17.79;36.72
19150;BME280;9707;49.158;8.632;2024-01-30T01:07:19;101818.53;;;17.78;35.85
19150;BME280;9707;49.158;8.632;2024-01-30T01:09:44;101822.13;;;17.77;35.11
19150;BME280;9707;49.158;8.632;2024-01-30T01:12:09;101823.16;;;17.74;34.80
19150;BME280;9707;49.158;8.632;2024-01-30T01:14:34;101817.03;;;17.71;35.44
19150;BME280;9707;49.158;8.632;2024-01-30T01:17:01;101826.97;;;17.70;35.84
19150;BME280;9707;49.158;8.632;2024-01-30T01:19:26;101818.88;;;17.70;36.41
19150;BME280;9707;49.158;8.632;2024-01-30T01:21:51;101824.25;;;17.70;35.73
19150;BME280;9707;49.158;8.632;2024-01-30T01:24:17;101826.00;;;17.71;34.99
19150;BME280;9707;49.158;8.632;2024-01-30T01:26:42;101824.31;;;17.69;34.65
19150;BME280;9707;49.158;8.632;2024-01-30T01:29:07;101820.81;;;17.67;34.67
19150;BME280;9707;49.158;8.632;2024-01-30T01:31:37;101817.31;;;17.65;35.15
19150;BME280;9707;49.158;8.632;2024-01-30T01:34:11;101822.72;;;17.65;35.36
19150;BME280;9707;49.158;8.632;2024-01-30T01:36:36;101809.28;;;17.63;34.81
19150;BME280;9707;49.158;8.632;2024-01-30T01:39:01;101816.44;;;17.64;35.73
19150;BME280;9707;49.158;8.632;2024-01-30T01:41:31;101803.91;;;17.63;34.56
19150;BME280;9707;49.158;8.632;2024-01-30T01:44:00;101808.44;;;17.63;34.76
19150;BME280;9707;49.158;8.632;2024-01-30T01:46:30;101808.44;;;17.63;34.24
19150;BME280;9707;49.158;8.632;2024-01-30T01:48:57;101810.31;;;17.61;34.23
19150;BME280;9707;49.158;8.632;2024-01-30T01:51:24;101806.75;;;17.60;34.41
19150;BME280;9707;49.158;8.632;2024-01-30T01:53:52;101800.47;;;17.60;35.10
19150;BME280;9707;49.158;8.632;2024-01-30T01:56:18;101795.16;;;17.58;35.03
19150;BME280;9707;49.158;8.632;2024-01-30T01:58:45;101805.94;;;17.58;34.59
19150;BME280;9707;49.158;8.632;2024-01-30T02:01:13;101798.81;;;17.57;34.38
19150;BME280;9707;49.158;8.632;2024-01-30T02:03:39;101797.91;;;17.57;35.22
19150;BME280;9707;49.158;8.632;2024-01-30T02:06:06;101799.81;;;17.55;36.08
19150;BME280;9707;49.158;8.632;2024-01-30T02:08:31;101798.88;;;17.56;35.51
19150;BME280;9707;49.158;8.632;2024-01-30T02:10:57;101797.13;;;17.55;34.80
19150;BME280;9707;49.158;8.632;2024-01-30T02:13:22;101803.47;;;17.54;34.84
19150;BME280;9707;49.158;8.632;2024-01-30T02:15:53;101811.53;;;17.54;35.23
19150;BME280;9707;49.158;8.632;2024-01-30T02:18:19;101809.75;;;17.54;34.80
19150;BME280;9707;49.158;8.632;2024-01-30T02:20:45;101813.44;;;17.52;34.93
19150;BME280;9707;49.158;8.632;2024-01-30T02:23:12;101803.59;;;17.51;34.49
19150;BME280;9707;49.158;8.632;2024-01-30T02:25:40;101806.28;;;17.51;34.41
19150;BME280;9707;49.158;8.632;2024-01-30T02:28:13;101801.00;;;17.49;34.54
19150;BME280;9707;49.158;8.632;2024-01-30T02:30:39;101798.34;;;17.48;35.06
19150;BME280;9707;49.158;8.632;2024-01-30T02:33:04;101800.09;;;17.49;34.49
19150;BME280;9707;49.158;8.632;2024-01-30T02:35:29;101796.50;;;17.48;34.50
19150;BME280;9707;49.158;8.632;2024-01-30T02:37:55;101804.75;;;17.45;35.14
19150;BME280;9707;49.158;8.632;2024-01-30T02:40:20;101800.38;;;17.43;35.45
19150;BME280;9707;49.158;8.632;2024-01-30T02:42:45;101804.88;;;17.42;36.12
19150;BME280;9707;49.158;8.632;2024-01-30T02:45:11;101796.84;;;17.41;35.90
19150;BME280;9707;49.158;8.632;2024-01-30T02:47:36;101807.72;;;17.39;34.90
19150;BME280;9707;49.158;8.632;2024-01-30T02:50:02;101807.75;;;17.38;34.28
19150;BME280;9707;49.158;8.632;2024-01-30T02:52:27;101801.53;;;17.36;34.23
19150;BME280;9707;49.158;8.632;2024-01-30T02:54:52;101801.53;;;17.36;35.00
19150;BME280;9707;49.158;8.632;2024-01-30T02:57:18;101804.22;;;17.36;34.87
19150;BME280;9707;49.158;8.632;2024-01-30T02:59:43;101793.47;;;17.36;34.88
19150;BME280;9707;49.158;8.632;2024-01-30T03:02:08;101799.84;;;17.33;34.73
19150;BME280;9707;49.158;8.632;2024-01-30T03:04:33;101798.06;;;17.34;36.18
19150;BME280;9707;49.158;8.632;2024-01-30T03:06:59;101797.94;;;17.37;35.79
19150;BME280;9707;49.158;8.632;2024-01-30T03:09:24;101795.25;;;17.37;34.96
19150;BME280;9707;49.158;8.632;2024-01-30T03:11:49;101799.72;;;17.36;34.54
19150;BME280;9707;49.158;8.632;2024-01-30T03:14:14;101804.31;;;17.34;34.83
19150;BME280;9707;49.158;8.632;2024-01-30T03:16:40;101804.22;;;17.36;36.15
19150;BME280;9707;49.158;8.632;2024-01-30T03:19:06;101798.84;;;17.36;36.05
19150;BME280;9707;49.158;8.632;2024-01-30T03:21:33;101805.13;;;17.36;36.05
19150;BME280;9707;49.158;8.632;2024-01-30T03:23:58;101806.00;;;17.37;35.39
19150;BME280;9707;49.158;8.632;2024-01-30T03:26:24;101804.19;;;17.37;34.88
19150;BME280;9707;49.158;8.632;2024-01-30T03:28:49;101801.63;;;17.34;34.92
19150;BME280;9707;49.158;8.632;2024-01-30T03:31:15;101799.00;;;17.33;34.73
19150;BME280;9707;49.158;8.632;2024-01-30T03:33:41;101797.16;;;17.33;35.09
19150;BME280;9707;49.158;8.632;2024-01-30T03:36:08;101805.34;;;17.32;34.41
19150;BME280;9707;49.158;8.632;2024-01-30T03:38:34;101802.78;;;17.29;34.35
19150;BME280;9707;49.158;8.632;2024-01-30T03:40:59;101796.59;;;17.27;34.64
19150;BME280;9707;49.158;8.632;2024-01-30T03:43:25;101797.50;;;17.26;34.77
19150;BME280;9707;49.158;8.632;2024-01-30T03:45:50;101798.38;;;17.26;35.46
19150;BME280;9707;49.158;8.632;2024-01-30T03:48:16;101804.66;;;17.27;34.72
19150;BME280;9707;49.158;8.632;2024-01-30T03:50:41;101804.66;;;17.27;35.54
19150;BME280;9707;49.158;8.632;2024-01-30T03:53:06;101800.13;;;17.27;35.47
19150;BME280;9707;49.158;8.632;2024-01-30T03:55:31;101800.13;;;17.27;35.47
19150;BME280;9707;49.158;8.632;2024-01-30T03:57:56;101808.22;;;17.27;35.34
19150;BME280;9707;49.158;8.632;2024-01-30T04:00:22;101810.06;;;17.27;34.83
19150;BME280;9707;49.158;8.632;2024-01-30T04:02:47;101802.03;;;17.25;35.22
19150;BME280;9707;49.158;8.632;2024-01-30T04:05:12;101807.47;;;17.24;35.62
19150;BME280;9707;49.158;8.632;2024-01-30T04:07:38;101803.91;;;17.23;35.19
19150;BME280;9707;49.158;8.632;2024-01-30T04:10:03;101807.53;;;17.22;34.71
19150;BME280;9707;49.158;8.632;2024-01-30T04:12:31;101810.28;;;17.21;35.10
19150;BME280;9707;49.158;8.632;2024-01-30T04:14:56;101802.31;;;17.19;35.17
19150;BME280;9707;49.158;8.632;2024-01-30T04:17:21;101796.91;;;17.19;35.01
19150;BME280;9707;49.158;8.632;2024-01-30T04:19:46;101803.16;;;17.20;34.57
19150;BME280;9707;49.158;8.632;2024-01-30T04:22:12;101797.78;;;17.20;34.95
19150;BME280;9707;49.158;8.632;2024-01-30T04:24:37;101796.91;;;17.19;34.81
19150;BME280;9707;49.158;8.632;2024-01-30T04:27:02;101790.66;;;17.19;34.77
19150;BME280;9707;49.158;8.632;2024-01-30T04:29:28;101789.75;;;17.18;34.47
19150;BME280;9707;49.158;8.632;2024-01-30T04:31:53;101787.16;;;17.17;35.00
19150;BME280;9707;49.158;8.632;2024-01-30T04:34:18;101791.66;;;17.16;34.84
19150;BME280;9707;49.158;8.632;2024-01-30T04:36:44;101790.75;;;17.16;34.79
19150;BME280;9707;49.158;8.632;2024-01-30T04:39:10;101795.25;;;17.17;34.81
19150;BME280;9707;49.158;8.632;2024-01-30T04:41:35;101798.00;;;17.15;35.02
19150;BME280;9707;49.158;8.632;2024-01-30T04:44:00;101792.59;;;17.15;35.08
19150;BME280;9707;49.158;8.632;2024-01-30T04:46:26;101799.78;;;17.15;35.13
19150;BME280;9707;49.158;8.632;2024-01-30T04:48:51;101794.41;;;17.15;34.83
19150;BME280;9707;49.158;8.632;2024-01-30T04:51:16;101796.16;;;17.16;34.71
19150;BME280;9707;49.158;8.632;2024-01-30T04:53:42;101799.78;;;17.15;35.13
19150;BME280;9707;49.158;8.632;2024-01-30T04:56:07;101799.78;;;17.15;34.75
19150;BME280;9707;49.158;8.632;2024-01-30T04:58:32;101805.19;;;17.15;34.60
19150;BME280;9707;49.158;8.632;2024-01-30T05:00:57;101808.81;;;17.14;34.50
19150;BME280;9707;49.158;8.632;2024-01-30T05:03:23;101799.00;;;17.13;34.71
19150;BME280;9707;49.158;8.632;2024-01-30T05:05:49;101806.25;;;17.11;33.83
19150;BME280;9707;49.158;8.632;2024-01-30T05:08:14;101805.44;;;17.09;34.46
19150;BME280;9707;49.158;8.632;2024-01-30T05:10:39;101808.19;;;17.07;33.99
19150;BME280;9707;49.158;8.632;2024-01-30T05:13:05;101817.22;;;17.06;33.87
19150;BME280;9707;49.158;8.632;2024-01-30T05:15:30;101817.28;;;17.05;34.78
19150;BME280;9707;49.158;8.632;2024-01-30T05:17:55;101812.84;;;17.04;34.86
19150;BME280;9707;49.158;8.632;2024-01-30T05:20:20;101820.03;;;17.03;34.92
19150;BME280;9707;49.158;8.632;2024-01-30T05:22:46;101819.97;;;17.05;34.91
19150;BME280;9707;49.158;8.632;2024-01-30T05:25:14;101817.22;;;17.06;35.25
19150;BME280;9707;49.158;8.632;2024-01-30T05:27:39;101817.09;;;17.09;34.70
19150;BME280;9707;49.158;8.632;2024-01-30T05:30:08;101820.72;;;17.08;34.52
19150;BME280;9707;49.158;8.632;2024-01-30T05:32:33;101827.00;;;17.09;34.87
19150;BME280;9707;49.158;8.632;2024-01-30T05:34:59;101822.56;;;17.08;35.18
19150;BME280;9707;49.158;8.632;2024-01-30T05:37:24;101824.34;;;17.07;34.80
19150;BME280;9707;49.158;8.632;2024-01-30T05:39:49;101827.00;;;17.09;35.06
19150;BME280;9707;49.158;8.632;2024-01-30T05:42:15;101826.03;;;17.10;34.85
19150;BME280;9707;49.158;8.632;2024-01-30T05:44:42;101835.00;;;17.10;35.47
19150;BME280;9707;49.158;8.632;2024-01-30T05:47:07;101830.47;;;17.11;35.74
19150;BME280;9707;49.158;8.632;2024-01-30T05:49:32;101832.25;;;17.12;35.40
19150;BME280;9707;49.158;8.632;2024-01-30T05:51:57;101826.88;;;17.12;35.17
19150;BME280;9707;49.158;8.632;2024-01-30T05:54:23;101832.25;;;17.12;35.51
19150;BME280;9707;49.158;8.632;2024-01-30T05:56:48;101835.81;;;17.12;33.97
19150;BME280;9707;49.158;8.632;2024-01-30T05:59:13;101828.88;;;17.07;33.59
19150;BME280;9707;49.158;8.632;2024-01-30T06:01:45;101830.75;;;17.05;34.92
19150;BME280;9707;49.158;8.632;2024-01-30T06:04:11;101834.38;;;17.04;34.75
19150;BME280;9707;49.158;8.632;2024-01-30T06:06:36;101838.03;;;17.03;34.65
19150;BME280;9707;49.158;8.632;2024-01-30T06:09:01;101836.28;;;17.02;34.06
19150;BME280;9707;49.158;8.632;2024-01-30T06:11:26;101834.50;;;17.01;34.60
19150;BME280;9707;49.158;8.632;2024-01-30T06:13:52;101835.44;;;17.00;34.53
19150;BME280;9707;49.158;8.632;2024-01-30T06:16:17;101834.50;;;17.01;35.43
19150;BME280;9707;49.158;8.632;2024-01-30T06:18:42;101837.13;;;17.02;35.12
19150;BME280;9707;49.158;8.632;2024-01-30T06:21:08;101832.66;;;17.03;35.57
19150;BME280;9707;49.158;8.632;2024-01-30T06:23:33;101842.47;;;17.04;34.51
19150;BME280;9707;49.158;8.632;2024-01-30T06:25:58;101837.13;;;17.02;34.45
19150;BME280;9707;49.158;8.632;2024-01-30T06:28:24;101839.09;;;16.99;33.80
19150;BME280;9707;49.158;8.632;2024-01-30T06:30:49;101838.28;;;16.97;34.36
19150;BME280;9707;49.158;8.632;2024-01-30T06:33:14;101840.03;;;16.98;36.47
19150;BME280;9707;49.158;8.632;2024-01-30T06:35:40;101845.22;;;17.02;35.75
19150;BME280;9707;49.158;8.632;2024-01-30T06:38:06;101838.97;;;17.02;35.50
19150;BME280;9707;49.158;8.632;2024-01-30T06:40:31;101832.59;;;17.04;35.84
19150;BME280;9707;49.158;8.632;2024-01-30T06:42:56;101831.63;;;17.05;35.44
19150;BME280;9707;49.158;8.632;2024-01-30T06:45:22;101841.41;;;17.08;36.13
19150;BME280;9707;49.158;8.632;2024-01-30T06:47:47;101830.63;;;17.08;36.44
19150;BME280;9707;49.158;8.632;2024-01-30T06:50:12;101841.25;;;17.11;36.27
19150;BME280;9707;49.158;8.632;2024-01-30T06:52:38;101842.19;;;17.10;35.74
19150;BME280;9707;49.158;8.632;2024-01-30T06:55:03;101838.72;;;17.08;34.90
19150;BME280;9707;49.158;8.632;2024-01-30T06:57:28;101844.16;;;17.06;34.75
19150;BME280;9707;49.158;8.632;2024-01-30T06:59:55;101845.97;;;17.06;34.69
19150;BME280;9707;49.158;8.632;2024-01-30T07:02:20;101845.09;;;17.05;35.41
19150;BME280;9707;49.158;8.632;2024-01-30T07:04:46;101854.03;;;17.06;35.43
19150;BME280;9707;49.158;8.632;2024-01-30T07:07:11;101843.25;;;17.06;34.79
19150;BME280;9707;49.158;8.632;2024-01-30T07:09:38;101854.97;;;17.05;34.33
19150;BME280;9707;49.158;8.632;2024-01-30T07:12:04;101849.59;;;17.05;34.87
19150;BME280;9707;49.158;8.632;2024-01-30T07:14:29;101839.88;;;17.01;32.34
19150;BME280;9707;49.158;8.632;2024-01-30T07:16:54;101845.53;;;16.95;31.56
19150;BME280;9707;49.158;8.632;2024-01-30T07:19:19;101835.97;;;16.88;33.59
19150;BME280;9707;49.158;8.632;2024-01-30T07:21:45;101842.31;;;16.87;33.81
19150;BME280;9707;49.158;8.632;2024-01-30T07:24:11;101840.69;;;16.83;31.97
19150;BME280;9707;49.158;8.632;2024-01-30T07:26:36;101841.75;;;16.79;33.07
19150;BME280;9707;49.158;8.632;2024-01-30T07:29:01;101847.13;;;16.79;34.36
19150;BME280;9707;49.158;8.632;2024-01-30T07:31:27;101839.03;;;16.79;34.17
19150;BME280;9707;49.158;8.632;2024-01-30T07:33:52;101848.88;;;16.80;34.67
19150;BME280;9707;49.158;8.632;2024-01-30T07:36:18;101855.00;;;16.83;36.28
19150;BME280;9707;49.158;8.632;2024-01-30T07:38:43;101845.06;;;16.85;34.42
19150;BME280;9707;49.158;8.632;2024-01-30T07:41:08;101851.19;;;16.89;36.88
19150;BME280;9707;49.158;8.632;2024-01-30T07:43:34;101856.31;;;16.95;36.80
19150;BME280;9707;49.158;8.632;2024-01-30T07:45:59;101856.03;;;17.01;36.72
19150;BME280;9707;49.158;8.632;2024-01-30T07:48:26;101853.13;;;17.07;36.81
19150;BME280;9707;49.158;8.632;2024-01-30T07:50:51;101855.66;;;17.10;36.66
19150;BME280;9707;49.158;8.632;2024-01-30T07:53:16;101852.03;;;17.11;35.79
19150;BME280;9707;49.158;8.632;2024-01-30T07:55:41;101852.97;;;17.10;34.88
19150;BME280;9707;49.158;8.632;2024-01-30T07:58:09;101856.59;;;17.09;35.45
19150;BME280;9707;49.158;8.632;2024-01-30T08:00:35;101859.31;;;17.09;35.97
19150;BME280;9707;49.158;8.632;2024-01-30T08:03:00;101861.94;;;17.10;35.64
19150;BME280;9707;49.158;8.632;2024-01-30T08:05:25;101864.56;;;17.12;36.15
19150;BME280;9707;49.158;8.632;2024-01-30T08:07:51;101860.88;;;17.14;36.40
19150;BME280;9707;49.158;8.632;2024-01-30T08:10:16;101869.81;;;17.15;35.92
19150;BME280;9707;49.158;8.632;2024-01-30T08:12:44;101867.94;;;17.17;35.71
19150;BME280;9707;49.158;8.632;2024-01-30T08:15:09;101868.81;;;17.17;35.64
19150;BME280;9707;49.158;8.632;2024-01-30T08:17:35;101867.94;;;17.17;36.40
19150;BME280;9707;49.158;8.632;2024-01-30T08:20:00;101868.75;;;17.19;35.11
19150;BME280;9707;49.158;8.632;2024-01-30T08:22:25;101869.69;;;17.18;35.38
19150;BME280;9707;49.158;8.632;2024-01-30T08:24:51;101877.75;;;17.18;35.26
19150;BME280;9707;49.158;8.632;2024-01-30T08:27:17;101884.09;;;17.17;34.65
19150;BME280;9707;49.158;8.632;2024-01-30T08:29:42;101884.22;;;17.14;34.45
19150;BME280;9707;49.158;8.632;2024-01-30T08:32:08;101890.50;;;17.14;34.80
19150;BME280;9707;49.158;8.632;2024-01-30T08:34:33;101885.97;;;17.15;36.06
19150;BME280;9707;49.158;8.632;2024-01-30T08:36:59;101892.97;;;17.19;36.52
19150;BME280;9707;49.158;8.632;2024-01-30T08:39:24;101891.97;;;17.21;35.48
19150;BME280;9707;49.158;8.632;2024-01-30T08:41:49;101894.59;;;17.23;35.41
19150;BME280;9707;49.158;8.632;2024-01-30T08:44:14;101890.97;;;17.24;34.97
19150;BME280;9707;49.158;8.632;2024-01-30T08:46:40;101887.31;;;17.25;35.34
19150;BME280;9707;49.158;8.632;2024-01-30T08:49:05;101889.06;;;17.26;35.58
19150;BME280;9707;49.158;8.632;2024-01-30T08:51:30;101896.25;;;17.27;35.91
19150;BME280;9707;49.158;8.632;2024-01-30T08:53:56;101899.72;;;17.29;36.30
19150;BME280;9707;49.158;8.632;2024-01-30T08:56:21;101895.22;;;17.29;35.55
19150;BME280;9707;49.158;8.632;2024-01-30T08:58:47;101889.69;;;17.32;36.32
19150;BME280;9707;49.158;8.632;2024-01-30T09:01:12;101893.13;;;17.36;36.64
19150;BME280;9707;49.158;8.632;2024-01-30T09:03:37;101888.56;;;17.38;36.30
19150;BME280;9707;49.158;8.632;2024-01-30T09:06:11;101894.78;;;17.40;34.89
19150;BME280;9707;49.158;8.632;2024-01-30T09:08:36;101894.78;;;17.40;36.44
19150;BME280;9707;49.158;8.632;2024-01-30T09:11:08;101887.59;;;17.40;35.47
19150;BME280;9707;49.158;8.632;2024-01-30T09:13:34;101889.34;;;17.41;35.21
19150;BME280;9707;49.158;8.632;2024-01-30T09:15:59;101893.78;;;17.42;35.71
19150;BME280;9707;49.158;8.632;2024-01-30T09:18:24;101892.94;;;17.42;35.01
19150;BME280;9707;49.158;8.632;2024-01-30T09:20:49;101892.03;;;17.41;35.60
19150;BME280;9707;49.158;8.632;2024-01-30T09:23:15;101901.84;;;17.42;35.51
19150;BME280;9707;49.158;8.632;2024-01-30T09:25:40;101893.72;;;17.44;35.33
19150;BME280;9707;49.158;8.632;2024-01-30T09:28:05;101893.72;;;17.44;35.05
19150;BME280;9707;49.158;8.632;2024-01-30T09:30:31;101903.59;;;17.43;34.52
19150;BME280;9707;49.158;8.632;2024-01-30T09:32:56;101905.44;;;17.43;34.79
19150;BME280;9707;49.158;8.632;2024-01-30T09:35:21;101904.50;;;17.44;34.87
19150;BME280;9707;49.158;8.632;2024-01-30T09:37:46;101909.88;;;17.44;34.73
19150;BME280;9707;49.158;8.632;2024-01-30T09:40:12;101907.13;;;17.45;36.27
19150;BME280;9707;49.158;8.632;2024-01-30T09:42:37;101901.59;;;17.48;36.77
19150;BME280;9707;49.158;8.632;2024-01-30T09:45:03;101911.31;;;17.52;36.77
19150;BME280;9707;49.158;8.632;2024-01-30T09:47:39;101912.97;;;17.55;36.62
19150;BME280;9707;49.158;8.632;2024-01-30T09:50:06;101908.34;;;17.58;36.72
19150;BME280;9707;49.158;8.632;2024-01-30T09:52:31;101909.97;;;17.62;36.07
19150;BME280;9707;49.158;8.632;2024-01-30T09:54:59;101903.63;;;17.63;35.42
19150;BME280;9707;49.158;8.632;2024-01-30T09:57:25;101913.44;;;17.64;35.26
19150;BME280;9707;49.158;8.632;2024-01-30T09:59:51;101904.50;;;17.64;35.23
19150;BME280;9707;49.158;8.632;2024-01-30T10:02:17;101899.97;;;17.64;34.69
19150;BME280;9707;49.158;8.632;2024-01-30T10:04:44;101905.47;;;17.63;34.89
19150;BME280;9707;49.158;8.632;2024-01-30T10:07:10;101905.47;;;17.63;34.51
19150;BME280;9707;49.158;8.632;2024-01-30T10:09:36;101910.03;;;17.61;34.83
19150;BME280;9707;49.158;8.632;2024-01-30T10:12:02;101914.47;;;17.62;34.61
19150;BME280;9707;49.158;8.632;2024-01-30T10:14:28;101908.22;;;17.61;34.78
19150;BME280;9707;49.158;8.632;2024-01-30T10:16:55;101906.47;;;17.60;34.33
19150;BME280;9707;49.158;8.632;2024-01-30T10:19:20;101908.28;;;17.60;34.65
19150;BME280;9707;49.158;8.632;2024-01-30T10:21:46;101910.97;;;17.60;35.50
19150;BME280;9707;49.158;8.632;2024-01-30T10:24:11;101914.47;;;17.62;35.78
19150;BME280;9707;49.158;8.632;2024-01-30T10:26:39;101905.38;;;17.64;35.59
19150;BME280;9707;49.158;8.632;2024-01-30T10:29:04;101912.44;;;17.67;35.43
19150;BME280;9707;49.158;8.632;2024-01-30T10:31:30;101908.81;;;17.68;35.48
19150;BME280;9707;49.158;8.632;2024-01-30T10:33:56;101900.59;;;17.71;35.58
19150;BME280;9707;49.158;8.632;2024-01-30T10:36:27;101911.31;;;17.72;34.97
19150;BME280;9707;49.158;8.632;2024-01-30T10:38:55;101916.63;;;17.74;34.98
19150;BME280;9707;49.158;8.632;2024-01-30T10:41:26;101913.06;;;17.73;34.65
19150;BME280;9707;49.158;8.632;2024-01-30T10:44:03;101909.50;;;17.73;35.44
19150;BME280;9707;49.158;8.632;2024-01-30T10:46:33;101904.00;;;17.74;35.06
19150;BME280;9707;49.158;8.632;2024-01-30T10:49:00;101905.78;;;17.75;34.86
19150;BME280;9707;49.158;8.632;2024-01-30T10:51:29;101906.66;;;17.76;34.91
19150;BME280;9707;49.158;8.632;2024-01-30T10:53:56;101893.16;;;17.76;35.23
19150;BME280;9707;49.158;8.632;2024-01-30T10:56:21;101896.75;;;17.76;35.21
19150;BME280;9707;49.158;8.632;2024-01-30T10:58:49;101895.75;;;17.79;35.15
19150;BME280;9707;49.158;8.632;2024-01-30T11:01:14;101891.22;;;17.79;34.94
19150;BME280;9707;49.158;8.632;2024-01-30T11:03:41;101892.09;;;17.80;35.39
19150;BME280;9707;49.158;8.632;2024-01-30T11:06:10;101890.19;;;17.82;34.66
19150;BME280;9707;49.158;8.632;2024-01-30T11:08:37;101891.97;;;17.83;34.85
19150;BME280;9707;49.158;8.632;2024-01-30T11:11:08;101893.78;;;17.82;34.64
19150;BME280;9707;49.158;8.632;2024-01-30T11:13:34;101891.97;;;17.83;34.81
19150;BME280;9707;49.158;8.632;2024-01-30T11:16:01;101894.56;;;17.84;35.19
19150;BME280;9707;49.158;8.632;2024-01-30T11:18:31;101876.66;;;17.83;34.83
19150;BME280;9707;49.158;8.632;2024-01-30T11:20:57;101883.72;;;17.86;34.97
19150;BME280;9707;49.158;8.632;2024-01-30T11:23:23;101881.03;;;17.86;35.08
19150;BME280;9707;49.158;8.632;2024-01-30T11:25:49;101884.56;;;17.88;34.96
19150;BME280;9707;49.158;8.632;2024-01-30T11:28:15;101885.34;;;17.90;35.11
19150;BME280;9707;49.158;8.632;2024-01-30T11:30:44;101872.75;;;17.90;35.55
19150;BME280;9707;49.158;8.632;2024-01-30T11:33:13;101871.75;;;17.93;34.94
19150;BME280;9707;49.158;8.632;2024-01-30T11:35:43;101870.78;;;17.94;34.70
19150;BME280;9707;49.158;8.632;2024-01-30T11:38:10;101870.78;;;17.94;34.85
19150;BME280;9707;49.158;8.632;2024-01-30T11:40:37;101876.97;;;17.96;34.80
19150;BME280;9707;49.158;8.632;2024-01-30T11:43:04;101868.81;;;17.97;34.63
19150;BME280;9707;49.158;8.632;2024-01-30T11:45:31;101865.25;;;17.97;34.71
19150;BME280;9707;49.158;8.632;2024-01-30T11:47:57;101869.56;;;18.01;35.31
19150;BME280;9707;49.158;8.632;2024-01-30T11:50:22;101865.91;;;18.02;35.09
19150;BME280;9707;49.158;8.632;2024-01-30T11:52:48;101872.13;;;18.04;34.95
19150;BME280;9707;49.158;8.632;2024-01-30T11:55:17;101864.97;;;18.03;34.96
19150;BME280;9707;49.158;8.632;2024-01-30T11:57:42;101851.34;;;18.06;35.50
19150;BME280;9707;49.158;8.632;2024-01-30T12:00:17;101851.22;;;18.09;35.72
19150;BME280;9707;49.158;8.632;2024-01-30T12:02:44;101845.75;;;18.10;35.33
19150;BME280;9707;49.158;8.632;2024-01-30T12:05:13;101843.91;;;18.11;34.80
19150;BME280;9707;49.158;8.632;2024-01-30T12:07:39;101847.44;;;18.13;34.81
19150;BME280;9707;49.158;8.632;2024-01-30T12:10:04;101843.78;;;18.14;34.97
19150;BME280;9707;49.158;8.632;2024-01-30T12:12:31;101846.41;;;18.15;35.36
19150;BME280;9707;49.158;8.632;2024-01-30T12:14:56;101841.81;;;18.17;35.18
19150;BME280;9707;49.158;8.632;2024-01-30T12:17:34;101822.94;;;18.17;34.36
19150;BME280;9707;49.158;8.632;2024-01-30T12:20:15;101824.72;;;18.17;35.00
19150;BME280;9707;49.158;8.632;2024-01-30T12:22:43;101823.81;;;18.18;35.18
19150;BME280;9707;49.158;8.632;2024-01-30T12:25:17;101814.69;;;18.20;34.59
19150;BME280;9707;49.158;8.632;2024-01-30T12:27:47;101818.19;;;18.22;35.00
19150;BME280;9707;49.158;8.632;2024-01-30T12:30:15;101807.34;;;18.24;35.46
19150;BME280;9707;49.158;8.632;2024-01-30T12:32:44;101802.72;;;18.26;35.38
19150;BME280;9707;49.158;8.632;2024-01-30T12:35:11;101808.00;;;18.29;35.54
19150;BME280;9707;49.158;8.632;2024-01-30T12:37:37;101804.25;;;18.31;35.12
19150;BME280;9707;49.158;8.632;2024-01-30T12:40:03;101798.81;;;18.33;34.60
19150;BME280;9707;49.158;8.632;2024-01-30T12:42:28;101800.66;;;18.32;34.93
19150;BME280;9707;49.158;8.632;2024-01-30T12:44:54;101804.13;;;18.34;35.08
19150;BME280;9707;49.158;8.632;2024-01-30T12:47:21;101802.31;;;18.35;35.61
19150;BME280;9707;49.158;8.632;2024-01-30T12:49:46;101797.72;;;18.37;35.33
19150;BME280;9707;49.158;8.632;2024-01-30T12:52:13;101800.34;;;18.38;35.30
19150;BME280;9707;49.158;8.632;2024-01-30T12:54:39;101805.69;;;18.40;35.15